Arvin, CA

8:47 PM PDT on September 18, 2014 (GMT -0700)
KJ6LKN Greenfield | Change Station
CLOSE
Current Station
Personal Weather Station
Location: Bakersfield, CA
Elevation: 367 ft
Nearby Weather Stations

Elev 367 ft 35.30 °N, 119.01 °W | Updated 2 seconds ago

Clear
Clear
81.7 °F
Feels Like 81 °F
N
6.0
Wind Variable Wind from NW
Gusts 8.3 mph

Today
High -- | Low -- °F
--% Chance of Precip.
Yesterday
High -- | Low -- °F
Precip. -- in
6:40 AM 6:57 PM
Waning Crescent, 22% visible
Pressure 29.75 in
Visibility 10.0 miles
Clouds Clear
Heat Index 81 °F
Dew Point 55 °F
Humidity 40%
Rainfall 0.00 in
Snow Depth 0 in , 0 in , 1 in
UV 0 out of 12
Pollen 7.00 out of 12
PM2.5 Good
Flu Activity Not available.
METAR KBFL 190254Z 32010KT 10SM CLR 28/13 A2977 RMK AO2 SLP073 T02780128 53008

More Conditions Fewer Conditions

Pressure 29.75 in
Visibility 10.0 miles
Clouds Clear
Heat Index 81 °F
Dew Point 55 °F
Humidity 40%
Rainfall 0.00 in
Snow Depth 0 in , 0 in , 1 in
UV 0 out of 12
Pollen 7.00 out of 12
PM2.5 Good
Flu Activity Not available.
METAR KBFL 190254Z 32010KT 10SM CLR 28/13 A2977 RMK AO2 SLP073 T02780128 53008

More Conditions Fewer Conditions

10-Day Weather Forecast

Almanac

Astronomy

Sep. 18, 2014 Rise Set
Actual Time 6:40 AM PDT 6:57 PM PDT
Civil Twilight 6:15 AM PDT 7:23 PM PDT
Nautical Twilight 5:45 AM PDT 7:52 PM PDT
Astronomical Twilight 5:15 AM PDT 8:22 PM PDT
Moon 1:45 AM PDT (9/18) 3:44 PM PDT (9/18)
Length of Visible Light 13h 08m
Length of Day
12h 17m
Tomorrow will be 2m 12s shorter.
Waning Crescent, 22% of the Moon is Illuminated
Today
Waning Crescent
Sep 24
New
Oct 1
First Quarter
Oct 8
Full
Oct 15
Last Quarter

Today's Extremes

State Highs State Lows

Community

WunderPhotos

Upload Photos

1,754,553 photos uploaded!

Nearby

Air Quality

  Air Quality AQ Index Pollutant
Yesterday Moderate
OZONE
Yesterday Moderate
PM2.5
Current Good
PM2.5
Thursday Good
OZONE
Friday Good
OZONE
Saturday Good
OZONE
Sunday Good
OZONE
Monday Good
OZONE
Tuesday Good
OZONE

Snow Depth

Station Depth Elevation
Blue Lakes 0 in 8000 ft
Leavitt Lake 0 in 9400 ft
Adin Mountain 1 in 6200 ft
Summit Meadow 0 in 9122 ft
Rubicon #2 0 in 7500 ft

Earthquake Activity

City Distance Mag. Time & Date
Corcoran, California 77 miles 3.0 3:59 PM PDT
2014-09-18
Minimum magnitude displayed is 2.5.

Coastal Water Temperatures

Place Temperature
No Stations Reporting

Nearby Weather Stations